Bay Harbor, Michigan
Current Conditions -  °F | °C
As of 9:14 AM on Wednesday 28 Jan 2015 (Local Time) from KMGN Reporting Station
Clear Clear  
Wind Chill: -6°   Ceiling: Unl
Heat Index:   Visibility: 10mi
Dew Point: -3°   Wind: 5mph
Humidity: 78%   Direction: 50°NE
Pressure: 30.26"   Gusts: NA
Location:  45.3433°N, 84.8827°W
Report Text: KMGN 281414Z AUTO 05004KT 10SM CLR M16/M19 A3026 RMK AO2 T11611192
Loading
Personal Weather Stations






























Interactive Weather Map New forecast layout! Learn more

10-Day Weather Forecast

Advertisements
Track Severe Weather on mobile